Terminal Aerodrome Forecast
Issued by NWS

Home | Current Version | Previous Version | Text Only | Print | Product List | Glossary On
Versions: 1 2 3 4 5 6 7 8 9 10 11 12
000
FTUS43 KOAX 041129
TAFCDR
TAF
KCDR 041129Z 0412/0512 18007KT P6SM BKN100
     FM041500 18010KT P6SM BKN100
     FM042200 15012KT P6SM VCTS SCT050CB BKN250
     FM050300 VRB05KT P6SM SCT100=

USA.gov is the U.S. government's official web portal to all federal, state and local government web resources and services.